Time;durP1;ratioP1;P1;durP2;ratioP2;P2;SDS_P1;SDS_P2;PMS_P1;PMS_P2;Temp;Humidity;BMP_temperature;BMP_pressure;BME280_temperature;BME280_humidity;BME280_pressure;Samples;Min_cycle;Max_cycle;Signal;HPM_P1;HPM_P2
2023/02/18 00:00:26;;;;;;;5.13;3.55;;;15.60;71.90;;;;;;10360646;28;20040;-58
2023/02/18 00:05:28;;;;;;;6.75;3.50;;;15.60;71.80;;;;;;10359576;28;20018;-58
2023/02/18 00:10:29;;;;;;;6.50;3.00;;;15.60;71.80;;;;;;10359533;28;20112;-58
2023/02/18 00:15:29;;;;;;;6.47;4.22;;;15.50;71.80;;;;;;10360339;28;20025;-58
2023/02/18 00:20:32;;;;;;;5.60;3.40;;;15.50;71.80;;;;;;10359255;28;20058;-58
2023/02/18 00:25:33;;;;;;;5.45;3.38;;;15.50;71.90;;;;;;10359318;28;20018;-59
2023/02/18 00:30:33;;;;;;;7.72;4.10;;;15.50;71.70;;;;;;10358897;28;20128;-58
2023/02/18 00:35:34;;;;;;;6.28;3.80;;;15.50;71.80;;;;;;10341102;28;20561;-59
2023/02/18 00:40:39;;;;;;;7.22;4.10;;;15.50;71.90;;;;;;10325916;28;20019;-58
2023/02/18 00:45:40;;;;;;;6.45;3.72;;;15.50;71.80;;;;;;10309969;28;20080;-59
2023/02/18 00:50:41;;;;;;;9.18;4.35;;;15.50;72.10;;;;;;10309508;28;20475;-58
2023/02/18 00:55:43;;;;;;;6.30;3.80;;;15.50;72.20;;;;;;10325186;28;20121;-58
2023/02/18 01:00:45;;;;;;;6.78;4.63;;;15.50;72.00;;;;;;10326601;28;20465;-58
2023/02/18 01:05:46;;;;;;;8.68;4.60;;;15.40;71.90;;;;;;10308899;28;20026;-58
2023/02/18 01:10:53;;;;;;;7.57;4.38;;;15.40;71.60;;;;;;10326115;28;20076;-59
2023/02/18 01:15:54;;;;;;;7.15;4.25;;;15.50;71.90;;;;;;10324539;28;20033;-59
2023/02/18 01:20:55;;;;;;;7.90;4.32;;;15.40;72.20;;;;;;10326738;28;20076;-58
2023/02/18 01:25:57;;;;;;;6.68;4.25;;;15.40;71.90;;;;;;10307960;28;20026;-58
2023/02/18 01:30:57;;;;;;;7.60;4.43;;;15.40;71.80;;;;;;10323866;28;20026;-59
2023/02/18 01:35:58;;;;;;;7.30;5.07;;;15.40;72.10;;;;;;10363302;28;20069;-59
2023/02/18 01:40:59;;;;;;;6.95;4.35;;;15.40;72.00;;;;;;10364156;28;20041;-58
2023/02/18 01:46:12;;;;;;;7.57;4.32;;;15.40;71.60;;;;;;10364838;28;20105;-58
2023/02/18 01:51:33;;;;;;;8.38;4.63;;;15.40;72.00;;;;;;10365013;28;20026;-59
2023/02/18 01:57:14;;;;;;;6.28;4.18;;;15.40;72.00;;;;;;10363653;28;20034;-59
2023/02/18 02:02:20;;;;;;;8.00;4.30;;;15.40;71.70;;;;;;10362539;28;20367;-59
2023/02/18 02:07:24;;;;;;;7.57;4.57;;;15.40;71.80;;;;;;10362922;28;20014;-58
2023/02/18 02:13:05;;;;;;;8.63;4.53;;;15.40;71.70;;;;;;10363010;28;20029;-58
2023/02/18 02:18:49;;;;;;;5.75;4.68;;;15.30;71.90;;;;;;10363205;28;20033;-58
2023/02/18 02:24:23;;;;;;;7.35;4.28;;;15.30;72.00;;;;;;10362622;28;20437;-58
2023/02/18 02:30:09;;;;;;;7.45;3.78;;;15.30;71.70;;;;;;10362806;28;20619;-58
2023/02/18 02:35:18;;;;;;;9.60;4.03;;;15.30;71.90;;;;;;10361543;28;20072;-59
2023/02/18 02:40:40;;;;;;;9.68;4.63;;;15.30;71.60;;;;;;10337548;28;20489;-58
2023/02/18 02:46:07;;;;;;;7.82;4.82;;;15.30;71.90;;;;;;10322355;28;20386;-59
2023/02/18 02:51:34;;;;;;;7.70;5.43;;;15.30;72.00;;;;;;10321443;28;20356;-59
2023/02/18 02:56:35;;;;;;;9.65;4.63;;;15.30;72.00;;;;;;10304423;28;20137;-58
2023/02/18 03:02:16;;;;;;;6.22;4.50;;;15.30;71.60;;;;;;10320368;28;20842;-59
2023/02/18 03:07:49;;;;;;;8.23;4.82;;;15.30;71.90;;;;;;10321660;28;20129;-59
2023/02/18 03:12:58;;;;;;;7.50;4.18;;;15.30;72.00;;;;;;10319831;28;20044;-59
2023/02/18 03:18:27;;;;;;;8.57;4.85;;;15.20;72.00;;;;;;10321781;28;20038;-58
2023/02/18 03:23:37;;;;;;;7.10;4.75;;;15.30;72.00;;;;;;10335962;28;20033;-57
2023/02/18 03:28:39;;;;;;;6.65;4.72;;;15.20;72.00;;;;;;10319549;28;20100;-58
2023/02/18 03:33:48;;;;;;;7.80;5.22;;;15.20;71.90;;;;;;10319380;28;20355;-59
2023/02/18 03:38:57;;;;;;;8.77;4.23;;;15.20;71.80;;;;;;10345603;28;20481;-58
2023/02/18 03:44:06;;;;;;;6.53;4.78;;;15.20;71.80;;;;;;10359745;28;20022;-58
2023/02/18 03:49:07;;;;;;;7.65;4.35;;;15.20;71.70;;;;;;10360033;28;20033;-57
2023/02/18 03:54:08;;;;;;;8.15;4.63;;;15.20;71.60;;;;;;10361167;28;20022;-59
2023/02/18 03:59:10;;;;;;;6.38;4.13;;;15.20;71.80;;;;;;10359961;28;20025;-58
2023/02/18 04:04:11;;;;;;;8.00;4.47;;;15.20;71.90;;;;;;10359988;28;20104;-58
2023/02/18 04:09:12;;;;;;;5.15;3.60;;;15.20;71.90;;;;;;10367314;28;20028;-58
2023/02/18 04:14:13;;;;;;;6.72;4.97;;;15.20;71.90;;;;;;10368453;28;20117;-58
2023/02/18 04:19:14;;;;;;;7.35;4.80;;;15.20;71.70;;;;;;10351034;28;20014;-58
2023/02/18 04:24:14;;;;;;;6.05;4.25;;;15.20;71.90;;;;;;10366951;28;20409;-57
2023/02/18 04:29:15;;;;;;;5.57;3.53;;;15.10;71.90;;;;;;10367507;28;20419;-58
2023/02/18 04:34:16;;;;;;;8.38;3.92;;;15.20;71.60;;;;;;10342270;28;20510;-58
2023/02/18 04:39:16;;;;;;;6.68;4.53;;;15.10;71.80;;;;;;10326137;28;20102;-58
2023/02/18 04:44:17;;;;;;;8.57;3.80;;;15.20;71.80;;;;;;10309958;28;20121;-57
2023/02/18 04:49:18;;;;;;;6.22;3.38;;;15.10;71.70;;;;;;10326988;28;20046;-58
2023/02/18 04:54:18;;;;;;;5.25;3.65;;;15.10;71.90;;;;;;10326383;28;20070;-58
2023/02/18 04:59:19;;;;;;;6.20;3.97;;;15.20;71.80;;;;;;10325757;28;20113;-58
2023/02/18 05:04:20;;;;;;;6.35;3.67;;;15.10;71.90;;;;;;10309036;28;20157;-59
2023/02/18 05:09:20;;;;;;;6.47;4.13;;;15.10;71.90;;;;;;10308665;28;20081;-58
2023/02/18 05:14:21;;;;;;;5.85;3.90;;;15.10;71.90;;;;;;10326270;28;20126;-59
2023/02/18 05:19:22;;;;;;;5.35;3.25;;;15.10;71.90;;;;;;10324439;28;20122;-58
2023/02/18 05:24:22;;;;;;;4.70;3.38;;;15.10;71.90;;;;;;10324685;28;20410;-58
2023/02/18 05:29:23;;;;;;;4.95;3.55;;;15.00;71.80;;;;;;10324010;28;20030;-58
2023/02/18 05:34:24;;;;;;;4.85;2.95;;;15.10;71.90;;;;;;10350815;28;20046;-58
2023/02/18 05:39:24;;;;;;;4.95;3.65;;;15.00;71.80;;;;;;10340095;28;20025;-58
2023/02/18 05:44:31;;;;;;;5.68;3.47;;;15.00;71.90;;;;;;10324144;28;20097;-58
2023/02/18 05:49:33;;;;;;;4.03;2.80;;;15.10;72.00;;;;;;10324864;28;20019;-57
2023/02/18 05:54:35;;;;;;;5.47;3.15;;;15.00;71.80;;;;;;10324497;28;20052;-58
2023/02/18 05:59:36;;;;;;;4.10;2.55;;;15.00;71.90;;;;;;10323538;28;20088;-58
2023/02/18 06:04:38;;;;;;;4.65;2.70;;;15.00;71.90;;;;;;10322873;28;20168;-58
2023/02/18 06:09:38;;;;;;;3.95;2.78;;;15.00;71.90;;;;;;10322464;28;20022;-58
2023/02/18 06:14:42;;;;;;;3.60;2.38;;;15.00;72.00;;;;;;10323189;28;20420;-58
2023/02/18 06:19:42;;;;;;;4.10;2.72;;;15.00;71.90;;;;;;10323620;28;20049;-57
2023/02/18 06:24:43;;;;;;;5.78;3.47;;;15.00;71.80;;;;;;10322231;28;20452;-58
2023/02/18 06:29:44;;;;;;;3.72;2.47;;;15.00;72.50;;;;;;10321752;28;20030;-58
2023/02/18 06:34:44;;;;;;;3.67;2.20;;;15.00;71.80;;;;;;10321206;28;20486;-58
2023/02/18 06:39:45;;;;;;;3.08;2.00;;;14.90;71.80;;;;;;10355575;28;20113;-57
2023/02/18 06:44:46;;;;;;;4.10;2.95;;;14.90;71.90;;;;;;10361477;28;20553;-58
2023/02/18 06:49:46;;;;;;;3.80;2.42;;;14.90;71.80;;;;;;10361890;28;20022;-58
2023/02/18 06:54:47;;;;;;;3.72;2.25;;;14.90;71.90;;;;;;10362549;28;20077;-58
2023/02/18 06:59:48;;;;;;;4.75;2.42;;;14.90;71.90;;;;;;10362444;28;20108;-58
2023/02/18 07:04:48;;;;;;;3.30;2.65;;;14.90;71.80;;;;;;10360424;28;20114;-58
2023/02/18 07:09:49;;;;;;;4.40;2.00;;;14.90;71.80;;;;;;10358251;28;20096;-58
2023/02/18 07:14:50;;;;;;;5.88;2.65;;;14.90;71.80;;;;;;10358907;28;20069;-58
2023/02/18 07:19:50;;;;;;;3.10;2.22;;;14.90;71.80;;;;;;10361893;28;20683;-59
2023/02/18 07:24:52;;;;;;;4.30;2.17;;;14.90;71.90;;;;;;10363178;28;20493;-59
2023/02/18 07:29:53;;;;;;;5.22;2.50;;;14.90;71.80;;;;;;10361891;28;20033;-58
2023/02/18 07:34:54;;;;;;;3.13;2.03;;;14.90;71.80;;;;;;10361033;28;20046;-58
2023/02/18 07:39:54;;;;;;;2.97;2.20;;;14.90;71.70;;;;;;10363010;28;20014;-58
2023/02/18 07:44:55;;;;;;;3.50;2.05;;;14.90;71.70;;;;;;10362203;28;20057;-58
2023/02/18 07:49:56;;;;;;;3.53;2.45;;;14.90;71.80;;;;;;10362703;28;20105;-58
2023/02/18 07:54:57;;;;;;;3.97;2.60;;;14.90;71.80;;;;;;10362464;28;20113;-58
2023/02/18 07:59:57;;;;;;;3.58;2.17;;;14.90;71.70;;;;;;10362673;28;20382;-58
2023/02/18 08:04:58;;;;;;;2.92;2.10;;;14.90;72.30;;;;;;10360920;28;20028;-59
2023/02/18 08:09:58;;;;;;;3.10;1.92;;;14.90;71.70;;;;;;10361058;28;20104;-59
2023/02/18 08:14:59;;;;;;;3.17;2.17;;;14.90;71.70;;;;;;10361794;28;20113;-58
2023/02/18 08:20:00;;;;;;;3.85;2.25;;;14.90;71.60;;;;;;10360812;28;20028;-58
2023/02/18 08:25:01;;;;;;;3.25;2.13;;;14.80;71.50;;;;;;10360751;28;20025;-58
2023/02/18 08:30:02;;;;;;;4.50;2.50;;;14.80;71.50;;;;;;10361400;28;20022;-58
2023/02/18 08:35:04;;;;;;;2.20;1.42;;;14.80;71.50;;;;;;10359890;28;20049;-59
2023/02/18 08:40:06;;;;;;;3.50;1.95;;;14.80;71.40;;;;;;10360304;28;20040;-58
2023/02/18 08:45:07;;;;;;;2.97;1.63;;;14.90;71.50;;;;;;10359772;28;20445;-58
2023/02/18 08:50:08;;;;;;;3.97;1.75;;;14.80;71.40;;;;;;10360119;28;20040;-59
2023/02/18 08:55:09;;;;;;;4.28;2.42;;;14.80;71.40;;;;;;10363976;28;20034;-57
2023/02/18 09:00:12;;;;;;;3.65;1.85;;;14.80;71.40;;;;;;10368044;28;20022;-58
2023/02/18 09:05:13;;;;;;;2.75;1.40;;;14.80;71.40;;;;;;10368052;28;20088;-58
2023/02/18 09:10:13;;;;;;;3.30;1.90;;;14.80;71.30;;;;;;10366992;28;20763;-58
2023/02/18 09:15:14;;;;;;;2.85;1.60;;;14.80;71.40;;;;;;10366486;28;20033;-58
2023/02/18 09:20:15;;;;;;;5.28;1.83;;;14.80;71.20;;;;;;10366455;28;20022;-59
2023/02/18 09:25:15;;;;;;;6.70;1.70;;;14.80;71.30;;;;;;10366359;28;20113;-59
2023/02/18 09:30:16;;;;;;;3.00;1.60;;;14.80;71.30;;;;;;10365893;28;20025;-56
2023/02/18 09:35:17;;;;;;;2.47;1.20;;;14.80;71.30;;;;;;10341781;28;20042;-59
2023/02/18 09:40:31;;;;;;;3.30;2.00;;;14.80;71.40;;;;;;10364692;28;20018;-58
2023/02/18 09:45:32;;;;;;;2.90;1.20;;;14.80;71.30;;;;;;10365238;28;20033;-57
2023/02/18 09:50:33;;;;;;;3.38;1.35;;;14.80;71.30;;;;;;10365071;28;20033;-58
2023/02/18 09:55:39;;;;;;;2.53;1.40;;;14.80;71.30;;;;;;10364328;28;20049;-59
2023/02/18 10:00:49;;;;;;;3.72;1.67;;;14.80;71.40;;;;;;10364661;28;20018;-58
2023/02/18 10:06:30;;;;;;;3.17;1.42;;;14.80;71.40;;;;;;10348567;28;20546;-58
2023/02/18 10:11:40;;;;;;;3.50;1.40;;;14.80;71.30;;;;;;10350332;28;20508;-58
2023/02/18 10:16:44;;;;;;;4.97;2.15;;;14.80;71.30;;;;;;10364380;28;20037;-59
2023/02/18 10:21:46;;;;;;;3.67;1.73;;;14.70;71.30;;;;;;10363631;28;20153;-58
2023/02/18 10:26:48;;;;;;;2.58;1.50;;;14.70;71.20;;;;;;10363514;28;20053;-58
2023/02/18 10:32:06;;;;;;;2.88;1.45;;;14.70;71.30;;;;;;10363762;28;20050;-58
2023/02/18 10:37:30;;;;;;;8.35;2.30;;;14.70;71.20;;;;;;10379188;28;20038;-58
2023/02/18 10:42:47;;;;;;;4.85;1.70;;;14.70;71.10;;;;;;10363223;28;20052;-58
2023/02/18 10:48:32;;;;;;;4.65;1.77;;;14.70;71.20;;;;;;10364234;28;20295;-58
2023/02/18 10:53:41;;;;;;;2.83;1.42;;;14.70;71.10;;;;;;10362934;28;20061;-58
2023/02/18 10:58:45;;;;;;;2.40;1.25;;;14.70;71.20;;;;;;10362690;28;20030;-58
2023/02/18 11:03:51;;;;;;;2.00;1.30;;;14.70;71.10;;;;;;10362101;28;20064;-59
2023/02/18 11:08:53;;;;;;;4.18;1.50;;;14.70;71.20;;;;;;10363448;28;20029;-59
2023/02/18 11:14:07;;;;;;;6.13;1.42;;;14.80;71.20;;;;;;10362807;28;20022;-58
2023/02/18 11:19:34;;;;;;;3.03;1.30;;;14.70;71.10;;;;;;10361131;28;20018;-58
2023/02/18 11:24:38;;;;;;;4.72;1.40;;;14.70;71.10;;;;;;10351867;28;20026;-59
2023/02/18 11:29:39;;;;;;;3.30;1.88;;;14.70;71.10;;;;;;10361697;28;20022;-58
2023/02/18 11:34:42;;;;;;;3.78;1.48;;;14.70;71.10;;;;;;10337079;28;20483;-58
2023/02/18 11:39:47;;;;;;;4.88;2.00;;;14.70;71.20;;;;;;10354394;28;20046;-58
2023/02/18 11:44:55;;;;;;;4.20;1.58;;;14.70;71.20;;;;;;10361249;28;20022;-58
2023/02/18 11:50:14;;;;;;;4.55;1.33;;;14.70;71.10;;;;;;10360804;28;20025;-58
2023/02/18 11:55:18;;;;;;;7.13;1.50;;;14.70;71.20;;;;;;10360098;28;20033;-59
2023/02/18 12:00:46;;;;;;;4.50;2.08;;;14.70;71.10;;;;;;10360795;28;20025;-59
2023/02/18 12:05:47;;;;;;;5.30;2.40;;;14.70;71.00;;;;;;10362027;28;20250;-59
2023/02/18 12:11:01;;;;;;;2.92;1.55;;;14.70;71.00;;;;;;10360614;28;20018;-58
2023/02/18 12:16:25;;;;;;;4.63;1.90;;;14.70;71.00;;;;;;10361997;28;20030;-58
2023/02/18 12:21:40;;;;;;;7.63;2.00;;;14.70;71.00;;;;;;10360782;28;20018;-59
2023/02/18 12:27:11;;;;;;;6.50;1.88;;;14.70;71.00;;;;;;10361194;28;20079;-58
2023/02/18 12:32:43;;;;;;;5.00;1.95;;;14.70;71.00;;;;;;10367998;28;20021;-59
2023/02/18 12:38:26;;;;;;;3.55;1.58;;;14.70;71.10;;;;;;10367847;28;20381;-58
2023/02/18 12:44:04;;;;;;;6.47;1.98;;;14.70;71.10;;;;;;10367525;28;20407;-59
2023/02/18 12:49:26;;;;;;;5.65;1.92;;;14.70;71.10;;;;;;10367626;28;20045;-58
2023/02/18 12:54:42;;;;;;;4.82;2.33;;;14.70;71.10;;;;;;10368169;28;20041;-58
2023/02/18 13:00:22;;;;;;;4.38;2.10;;;14.70;71.10;;;;;;10368196;28;20021;-57
2023/02/18 13:05:43;;;;;;;3.63;1.85;;;14.60;71.10;;;;;;10366919;28;20021;-59
2023/02/18 13:11:01;;;;;;;5.47;2.28;;;14.60;71.10;;;;;;10366672;28;20474;-59
2023/02/18 13:16:13;;;;;;;3.60;1.90;;;14.60;71.00;;;;;;10367986;28;20032;-58
2023/02/18 13:21:15;;;;;;;5.45;2.42;;;14.70;71.00;;;;;;10366924;28;20033;-58
2023/02/18 13:26:18;;;;;;;5.38;1.98;;;14.70;71.00;;;;;;10366143;28;20022;-59
2023/02/18 13:31:44;;;;;;;5.68;2.47;;;14.70;70.90;;;;;;10366183;28;20017;-59
2023/02/18 13:37:18;;;;;;;6.05;2.00;;;14.70;70.90;;;;;;10365562;28;20085;-57
2023/02/18 13:42:32;;;;;;;5.57;1.80;;;14.70;70.90;;;;;;10351448;28;20037;-58
2023/02/18 13:47:45;;;;;;;4.10;1.40;;;14.70;70.90;;;;;;10349713;28;20022;-59
2023/02/18 13:52:46;;;;;;;4.32;2.45;;;14.70;70.80;;;;;;10364649;28;20037;-58
2023/02/18 13:57:48;;;;;;;4.68;2.03;;;14.60;70.90;;;;;;10364461;28;20030;-58
2023/02/18 14:03:37;;;;;;;3.95;1.85;;;14.60;70.90;;;;;;10348564;28;20037;-59
2023/02/18 14:08:39;;;;;;;4.75;1.95;;;14.70;71.00;;;;;;10364502;28;20072;-59
2023/02/18 14:13:52;;;;;;;5.25;2.30;;;14.60;70.80;;;;;;10364156;28;20397;-58
2023/02/18 14:19:00;;;;;;;7.85;2.67;;;14.70;70.90;;;;;;10364356;28;20037;-59
2023/02/18 14:24:05;;;;;;;4.30;2.78;;;14.70;70.90;;;;;;10364074;28;20026;-59
2023/02/18 14:29:21;;;;;;;4.45;2.60;;;14.60;70.90;;;;;;10363770;28;20385;-59
2023/02/18 14:35:03;;;;;;;5.10;1.75;;;14.60;70.80;;;;;;10363443;28;20046;-59
2023/02/18 14:41:07;;;;;;;4.22;2.30;;;14.60;70.90;;;;;;10363555;28;20021;-58
2023/02/18 14:47:10;;;;;;;4.43;2.10;;;14.60;70.90;;;;;;10320068;28;20057;-58
2023/02/18 14:52:42;;;;;;;4.95;2.45;;;14.60;70.80;;;;;;10351520;28;20559;-59
2023/02/18 14:57:49;;;;;;;5.68;2.03;;;14.70;70.90;;;;;;10351103;28;20680;-59
2023/02/18 15:02:54;;;;;;;7.07;2.70;;;14.60;70.80;;;;;;10362719;28;20014;-59
2023/02/18 15:08:22;;;;;;;5.30;2.40;;;14.60;70.90;;;;;;10362225;28;20028;-58
2023/02/18 15:13:29;;;;;;;5.63;2.13;;;14.60;70.90;;;;;;10363059;28;20068;-59
2023/02/18 15:18:55;;;;;;;3.20;1.70;;;14.60;70.90;;;;;;10361637;28;20057;-59
2023/02/18 15:24:28;;;;;;;6.45;2.30;;;14.60;70.90;;;;;;10361803;28;20068;-59
2023/02/18 15:29:34;;;;;;;3.20;2.00;;;14.60;70.90;;;;;;10358611;28;20052;-59
2023/02/18 15:34:38;;;;;;;6.80;2.55;;;14.60;70.90;;;;;;10336999;28;20433;-59
2023/02/18 15:39:41;;;;;;;3.70;2.10;;;14.60;70.90;;;;;;10320893;28;20061;-58
2023/02/18 15:44:49;;;;;;;5.00;3.05;;;14.60;70.90;;;;;;10320678;28;20032;-59
2023/02/18 15:49:55;;;;;;;4.95;2.33;;;14.60;70.90;;;;;;10320660;28;20162;-58
2023/02/18 15:55:05;;;;;;;5.97;2.03;;;14.60;70.90;;;;;;10304132;28;20030;-59
2023/02/18 16:00:27;;;;;;;6.15;3.65;;;14.60;71.00;;;;;;10320326;28;20021;-59
2023/02/18 16:05:28;;;;;;;5.88;3.17;;;14.50;71.00;;;;;;10311364;28;20470;-59
2023/02/18 16:10:34;;;;;;;5.47;2.80;;;14.60;71.10;;;;;;10329924;28;20053;-59
2023/02/18 16:15:41;;;;;;;5.15;3.33;;;14.60;71.20;;;;;;10329393;28;20030;-59
2023/02/18 16:20:51;;;;;;;5.30;2.40;;;14.50;71.10;;;;;;10312460;28;20359;-58
2023/02/18 16:25:52;;;;;;;4.93;2.70;;;14.50;71.10;;;;;;10313212;28;20057;-59
2023/02/18 16:30:52;;;;;;;5.88;3.00;;;14.50;71.00;;;;;;10327494;28;20126;-58
2023/02/18 16:35:56;;;;;;;5.68;3.70;;;14.50;71.00;;;;;;10364840;28;20046;-58
2023/02/18 16:40:57;;;;;;;7.13;3.42;;;14.60;71.00;;;;;;10367963;28;20032;-58
2023/02/18 16:46:16;;;;;;;6.10;2.30;;;14.50;71.00;;;;;;10367724;28;20606;-59
2023/02/18 16:51:38;;;;;;;4.43;2.77;;;14.50;71.10;;;;;;10367613;28;20034;-59
2023/02/18 16:56:39;;;;;;;5.43;2.58;;;14.50;71.10;;;;;;10367950;28;20456;-59
2023/02/18 17:01:43;;;;;;;4.03;2.78;;;14.50;71.00;;;;;;10367708;28;20080;-59
2023/02/18 17:06:44;;;;;;;5.25;3.05;;;14.50;71.10;;;;;;10350957;28;20022;-59
2023/02/18 17:11:49;;;;;;;8.57;3.25;;;14.50;71.10;;;;;;10366978;28;20022;-59
2023/02/18 17:16:53;;;;;;;8.23;3.92;;;14.50;71.10;;;;;;10365804;28;20061;-58
2023/02/18 17:21:54;;;;;;;4.38;2.35;;;14.50;71.10;;;;;;10367477;28;20623;-58
2023/02/18 17:26:54;;;;;;;5.60;3.30;;;14.50;71.10;;;;;;10367400;28;20053;-58
2023/02/18 17:31:56;;;;;;;4.90;3.05;;;14.50;71.10;;;;;;10365164;28;20530;-59
2023/02/18 17:36:57;;;;;;;7.05;3.10;;;14.50;71.20;;;;;;10364280;28;20171;-59
2023/02/18 17:41:58;;;;;;;5.50;2.75;;;14.50;71.10;;;;;;10363769;28;20073;-59
2023/02/18 17:46:58;;;;;;;5.07;3.15;;;14.40;71.10;;;;;;10364210;28;20053;-58
2023/02/18 17:52:00;;;;;;;5.35;2.95;;;14.40;71.10;;;;;;10364001;28;20067;-58
2023/02/18 17:57:01;;;;;;;6.20;2.55;;;14.40;71.10;;;;;;10363674;28;20030;-58
2023/02/18 18:02:02;;;;;;;6.30;3.45;;;14.50;71.10;;;;;;10364945;28;20022;-59
2023/02/18 18:07:02;;;;;;;5.03;2.67;;;14.50;71.10;;;;;;10363714;28;20152;-58
2023/02/18 18:12:03;;;;;;;6.40;3.03;;;14.40;71.10;;;;;;10364115;28;20145;-59
2023/02/18 18:17:12;;;;;;;4.65;2.88;;;14.40;71.10;;;;;;10379409;28;20052;-58
2023/02/18 18:22:13;;;;;;;4.53;3.20;;;14.40;71.20;;;;;;10346748;28;20014;-58
2023/02/18 18:27:14;;;;;;;4.95;2.47;;;14.40;71.20;;;;;;10364016;28;20034;-58
2023/02/18 18:32:14;;;;;;;4.50;2.65;;;14.40;71.20;;;;;;10362015;28;20021;-59
2023/02/18 18:37:15;;;;;;;4.68;3.15;;;14.40;71.20;;;;;;10363163;28;20129;-59
2023/02/18 18:42:16;;;;;;;5.35;3.28;;;14.40;71.20;;;;;;10362186;28;20104;-59
2023/02/18 18:47:16;;;;;;;4.97;3.25;;;14.40;71.20;;;;;;10361976;28;20112;-59
2023/02/18 18:52:17;;;;;;;4.93;3.83;;;14.40;71.10;;;;;;10361522;28;20454;-59
2023/02/18 18:57:18;;;;;;;4.63;2.70;;;14.40;71.00;;;;;;10361364;28;20030;-58
2023/02/18 19:02:19;;;;;;;5.80;2.80;;;14.40;71.10;;;;;;10362499;28;20401;-58
2023/02/18 19:07:19;;;;;;;5.18;2.55;;;14.40;71.10;;;;;;10361288;28;20029;-58
2023/02/18 19:12:20;;;;;;;4.45;2.50;;;14.40;71.00;;;;;;10362382;28;20109;-59
2023/02/18 19:17:21;;;;;;;3.30;2.17;;;14.40;71.10;;;;;;10360624;28;20065;-59
2023/02/18 19:22:21;;;;;;;5.50;3.17;;;14.40;71.00;;;;;;10360838;28;20049;-60
2023/02/18 19:27:22;;;;;;;4.78;2.40;;;14.40;71.20;;;;;;10360568;28;20112;-59
2023/02/18 19:32:23;;;;;;;4.75;2.58;;;14.40;71.20;;;;;;10360172;28;20508;-59
2023/02/18 19:37:23;;;;;;;4.82;2.60;;;14.40;71.20;;;;;;10359100;28;20053;-59
2023/02/18 19:42:24;;;;;;;7.28;3.05;;;14.30;71.80;;;;;;10361250;28;20060;-59
2023/02/18 19:47:26;;;;;;;4.70;2.80;;;14.40;71.30;;;;;;10359772;28;20485;-58
2023/02/18 19:52:28;;;;;;;7.40;2.42;;;14.30;71.20;;;;;;10360132;28;20378;-59
2023/02/18 19:57:28;;;;;;;5.72;2.30;;;14.40;71.20;;;;;;10343061;28;20045;-59
2023/02/18 20:02:30;;;;;;;4.70;2.28;;;14.30;71.20;;;;;;10359802;28;20049;-59
2023/02/18 20:07:35;;;;;;;4.38;3.08;;;14.30;71.10;;;;;;10343700;28;20250;-59
2023/02/18 20:12:35;;;;;;;4.45;2.63;;;14.40;71.20;;;;;;10359535;28;20172;-59
2023/02/18 20:17:38;;;;;;;4.45;2.53;;;14.30;71.10;;;;;;10359245;28;20161;-58
2023/02/18 20:22:38;;;;;;;5.97;3.10;;;14.30;71.20;;;;;;10360727;28;20531;-59
2023/02/18 20:27:39;;;;;;;4.57;2.95;;;14.30;71.70;;;;;;10342806;28;20024;-59
2023/02/18 20:32:40;;;;;;;6.07;3.00;;;14.30;71.20;;;;;;10358923;28;20018;-59
2023/02/18 20:37:41;;;;;;;4.32;2.70;;;14.30;71.20;;;;;;10358700;28;20121;-59
2023/02/18 20:42:41;;;;;;;5.05;3.10;;;14.30;71.30;;;;;;10359168;28;20064;-59
2023/02/18 20:47:42;;;;;;;5.20;2.55;;;14.30;71.30;;;;;;10360787;28;20120;-58
2023/02/18 20:52:43;;;;;;;7.22;3.08;;;14.30;71.30;;;;;;10366636;28;20133;-58
2023/02/18 20:57:43;;;;;;;4.93;2.92;;;14.30;71.30;;;;;;10366353;28;20521;-58
2023/02/18 21:02:44;;;;;;;5.53;3.65;;;14.30;71.30;;;;;;10367154;28;20021;-59
2023/02/18 21:07:45;;;;;;;6.30;3.03;;;14.30;71.30;;;;;;10382037;28;20083;-59
2023/02/18 21:12:45;;;;;;;4.32;2.83;;;14.30;71.30;;;;;;10366949;28;20446;-58
2023/02/18 21:17:46;;;;;;;5.90;3.10;;;14.30;71.20;;;;;;10364925;28;20026;-59
2023/02/18 21:22:47;;;;;;;3.90;2.28;;;14.30;71.30;;;;;;10365333;28;20122;-59
2023/02/18 21:27:47;;;;;;;4.20;2.58;;;14.20;71.30;;;;;;10365108;28;20116;-59
2023/02/18 21:32:48;;;;;;;3.60;2.17;;;14.30;71.40;;;;;;10348368;28;20120;-59
2023/02/18 21:37:50;;;;;;;4.53;2.53;;;14.30;71.40;;;;;;10364540;28;20121;-59
2023/02/18 21:42:51;;;;;;;4.57;2.30;;;14.20;71.30;;;;;;10364250;28;20018;-58
2023/02/18 21:47:52;;;;;;;3.47;2.67;;;14.30;71.30;;;;;;10364104;28;20029;-59
2023/02/18 21:52:53;;;;;;;4.13;2.72;;;14.20;71.20;;;;;;10364176;28;20033;-57
2023/02/18 21:57:54;;;;;;;3.83;2.50;;;14.20;71.30;;;;;;10363732;28;20114;-57
2023/02/18 22:02:54;;;;;;;5.15;2.10;;;14.30;71.30;;;;;;10364461;28;20100;-59
2023/02/18 22:07:55;;;;;;;3.70;2.30;;;14.20;71.40;;;;;;10363660;28;20046;-58
2023/02/18 22:12:56;;;;;;;4.70;2.60;;;14.20;71.30;;;;;;10364617;28;20026;-59
2023/02/18 22:17:57;;;;;;;5.40;3.00;;;14.20;71.30;;;;;;10362998;28;20101;-58
2023/02/18 22:22:57;;;;;;;4.03;2.60;;;14.20;71.30;;;;;;10363021;28;20049;-59
2023/02/18 22:27:58;;;;;;;4.40;2.72;;;14.20;71.30;;;;;;10363093;28;20537;-58
2023/02/18 22:32:58;;;;;;;3.53;2.70;;;14.20;71.30;;;;;;10362130;28;20830;-59
2023/02/18 22:37:59;;;;;;;6.00;3.47;;;14.20;71.40;;;;;;10363112;28;20378;-59
2023/02/18 22:43:00;;;;;;;5.10;3.22;;;14.20;71.40;;;;;;10362133;28;20042;-57
2023/02/18 22:48:00;;;;;;;6.97;3.58;;;14.20;71.40;;;;;;10363113;28;20489;-59
2023/02/18 22:53:01;;;;;;;5.88;2.70;;;14.20;71.40;;;;;;10362973;28;20318;-58
2023/02/18 22:58:02;;;;;;;6.90;2.92;;;14.20;71.40;;;;;;10361389;28;20037;-59
2023/02/18 23:03:03;;;;;;;4.32;2.55;;;14.20;71.40;;;;;;10378170;28;20026;-58
2023/02/18 23:08:04;;;;;;;5.07;2.83;;;14.20;71.40;;;;;;10362114;28;20022;-59
2023/02/18 23:13:04;;;;;;;5.97;2.85;;;14.20;71.40;;;;;;10361706;28;20840;-59
2023/02/18 23:18:05;;;;;;;5.55;3.08;;;14.20;71.40;;;;;;10361886;28;20527;-59
2023/02/18 23:23:06;;;;;;;7.18;3.35;;;14.20;71.40;;;;;;10360821;28;20032;-58
2023/02/18 23:28:06;;;;;;;8.82;4.00;;;14.20;71.40;;;;;;10362125;28;20026;-59
2023/02/18 23:33:07;;;;;;;5.60;3.30;;;14.20;71.30;;;;;;10343745;28;20069;-59
2023/02/18 23:38:08;;;;;;;4.10;3.05;;;14.10;71.20;;;;;;10361642;28;20560;-59
2023/02/18 23:43:09;;;;;;;6.35;3.50;;;14.20;71.30;;;;;;10376562;28;20014;-59
2023/02/18 23:48:09;;;;;;;6.53;3.50;;;14.10;71.30;;;;;;10359985;28;20547;-59
2023/02/18 23:53:10;;;;;;;7.50;3.88;;;14.20;71.30;;;;;;10360341;28;20054;-59
2023/02/18 23:58:10;;;;;;;7.35;3.97;;;14.20;71.30;;;;;;10359793;28;20116;-58
